sensor_id;sensor_type;location;lat;lon;timestamp;temperature;humidity
65692;DHT22;52411;52.716;6.696;2023-05-10T00:00:36;13.40;99.90
65692;DHT22;52411;52.716;6.696;2023-05-10T00:03:01;13.40;99.90
65692;DHT22;52411;52.716;6.696;2023-05-10T00:05:29;13.40;99.90
65692;DHT22;52411;52.716;6.696;2023-05-10T00:07:55;13.40;99.90
65692;DHT22;52411;52.716;6.696;2023-05-10T00:10:20;13.40;99.90
65692;DHT22;52411;52.716;6.696;2023-05-10T00:12:46;13.40;99.90
65692;DHT22;52411;52.716;6.696;2023-05-10T00:15:11;13.30;99.90
65692;DHT22;52411;52.716;6.696;2023-05-10T00:17:36;13.30;99.90
65692;DHT22;52411;52.716;6.696;2023-05-10T00:20:02;13.30;99.90
65692;DHT22;52411;52.716;6.696;2023-05-10T00:22:30;13.20;99.90
65692;DHT22;52411;52.716;6.696;2023-05-10T00:24:55;13.20;99.90
65692;DHT22;52411;52.716;6.696;2023-05-10T00:27:21;13.20;99.90
65692;DHT22;52411;52.716;6.696;2023-05-10T00:29:46;13.20;99.90
65692;DHT22;52411;52.716;6.696;2023-05-10T00:32:12;13.20;99.90
65692;DHT22;52411;52.716;6.696;2023-05-10T00:34:39;13.20;99.90
65692;DHT22;52411;52.716;6.696;2023-05-10T00:37:04;13.20;99.90
65692;DHT22;52411;52.716;6.696;2023-05-10T00:39:30;13.20;99.90
65692;DHT22;52411;52.716;6.696;2023-05-10T00:41:56;13.20;99.90
65692;DHT22;52411;52.716;6.696;2023-05-10T00:44:21;13.20;99.90
65692;DHT22;52411;52.716;6.696;2023-05-10T00:46:47;13.20;99.90
65692;DHT22;52411;52.716;6.696;2023-05-10T00:49:13;13.20;99.90
65692;DHT22;52411;52.716;6.696;2023-05-10T00:51:38;13.20;99.90
65692;DHT22;52411;52.716;6.696;2023-05-10T00:54:04;13.20;99.90
65692;DHT22;52411;52.716;6.696;2023-05-10T00:56:30;13.20;99.90
65692;DHT22;52411;52.716;6.696;2023-05-10T00:58:56;13.20;99.90
65692;DHT22;52411;52.716;6.696;2023-05-10T01:01:22;13.20;99.90
65692;DHT22;52411;52.716;6.696;2023-05-10T01:03:48;13.20;99.90
65692;DHT22;52411;52.716;6.696;2023-05-10T01:06:13;13.20;99.90
65692;DHT22;52411;52.716;6.696;2023-05-10T01:08:39;13.20;99.90
65692;DHT22;52411;52.716;6.696;2023-05-10T01:11:04;13.10;99.90
65692;DHT22;52411;52.716;6.696;2023-05-10T01:13:34;13.20;99.90
65692;DHT22;52411;52.716;6.696;2023-05-10T01:16:01;13.10;99.90
65692;DHT22;52411;52.716;6.696;2023-05-10T01:18:30;13.20;99.90
65692;DHT22;52411;52.716;6.696;2023-05-10T01:28:33;13.10;99.90
65692;DHT22;52411;52.716;6.696;2023-05-10T01:31:22;13.10;99.90
65692;DHT22;52411;52.716;6.696;2023-05-10T01:33:56;13.10;99.90
65692;DHT22;52411;52.716;6.696;2023-05-10T01:38:55;13.10;99.90
65692;DHT22;52411;52.716;6.696;2023-05-10T01:44:07;13.10;99.90
65692;DHT22;52411;52.716;6.696;2023-05-10T01:46:36;13.10;99.90
65692;DHT22;52411;52.716;6.696;2023-05-10T01:49:03;13.00;99.90
65692;DHT22;52411;52.716;6.696;2023-05-10T01:51:36;13.00;99.90
65692;DHT22;52411;52.716;6.696;2023-05-10T01:54:03;13.00;99.90
65692;DHT22;52411;52.716;6.696;2023-05-10T01:56:30;13.10;99.90
65692;DHT22;52411;52.716;6.696;2023-05-10T01:58:57;13.00;99.90
65692;DHT22;52411;52.716;6.696;2023-05-10T02:01:23;13.00;99.90
65692;DHT22;52411;52.716;6.696;2023-05-10T02:03:51;13.00;99.90
65692;DHT22;52411;52.716;6.696;2023-05-10T02:06:18;13.00;99.90
65692;DHT22;52411;52.716;6.696;2023-05-10T02:08:44;13.00;99.90
65692;DHT22;52411;52.716;6.696;2023-05-10T02:11:11;13.00;99.90
65692;DHT22;52411;52.716;6.696;2023-05-10T02:13:38;13.00;99.90
65692;DHT22;52411;52.716;6.696;2023-05-10T02:16:04;13.00;99.90
65692;DHT22;52411;52.716;6.696;2023-05-10T02:18:30;13.00;99.90
65692;DHT22;52411;52.716;6.696;2023-05-10T02:20:56;13.00;99.90
65692;DHT22;52411;52.716;6.696;2023-05-10T02:23:23;13.00;99.90
65692;DHT22;52411;52.716;6.696;2023-05-10T02:25:48;13.00;99.90
65692;DHT22;52411;52.716;6.696;2023-05-10T02:28:15;13.00;99.90
65692;DHT22;52411;52.716;6.696;2023-05-10T02:30:41;13.00;99.90
65692;DHT22;52411;52.716;6.696;2023-05-10T02:33:06;13.00;99.90
65692;DHT22;52411;52.716;6.696;2023-05-10T02:35:32;13.00;99.90
65692;DHT22;52411;52.716;6.696;2023-05-10T02:37:59;13.00;99.90
65692;DHT22;52411;52.716;6.696;2023-05-10T02:40:25;13.00;99.90
65692;DHT22;52411;52.716;6.696;2023-05-10T02:42:52;13.00;99.90
65692;DHT22;52411;52.716;6.696;2023-05-10T02:45:20;12.90;99.90
65692;DHT22;52411;52.716;6.696;2023-05-10T02:47:47;12.90;99.90
65692;DHT22;52411;52.716;6.696;2023-05-10T02:50:12;12.90;99.90
65692;DHT22;52411;52.716;6.696;2023-05-10T02:52:46;12.90;99.90
65692;DHT22;52411;52.716;6.696;2023-05-10T02:55:12;12.90;99.90
65692;DHT22;52411;52.716;6.696;2023-05-10T02:57:41;12.90;99.90
65692;DHT22;52411;52.716;6.696;2023-05-10T03:00:07;12.90;99.90
65692;DHT22;52411;52.716;6.696;2023-05-10T03:02:33;12.90;99.90
65692;DHT22;52411;52.716;6.696;2023-05-10T03:04:59;12.90;99.90
65692;DHT22;52411;52.716;6.696;2023-05-10T03:07:24;12.90;99.90
65692;DHT22;52411;52.716;6.696;2023-05-10T03:09:50;12.90;99.90
65692;DHT22;52411;52.716;6.696;2023-05-10T03:12:25;12.90;99.90
65692;DHT22;52411;52.716;6.696;2023-05-10T03:18:01;12.90;99.90
65692;DHT22;52411;52.716;6.696;2023-05-10T03:20:26;12.90;99.90
65692;DHT22;52411;52.716;6.696;2023-05-10T03:23:30;12.90;99.90
65692;DHT22;52411;52.716;6.696;2023-05-10T03:25:46;12.90;99.90
65692;DHT22;52411;52.716;6.696;2023-05-10T03:28:13;12.90;99.90
65692;DHT22;52411;52.716;6.696;2023-05-10T03:30:40;12.90;99.90
65692;DHT22;52411;52.716;6.696;2023-05-10T03:33:06;12.90;99.90
65692;DHT22;52411;52.716;6.696;2023-05-10T03:35:32;12.90;99.90
65692;DHT22;52411;52.716;6.696;2023-05-10T03:37:57;12.90;99.90
65692;DHT22;52411;52.716;6.696;2023-05-10T03:40:23;12.90;99.90
65692;DHT22;52411;52.716;6.696;2023-05-10T03:42:49;12.90;99.90
65692;DHT22;52411;52.716;6.696;2023-05-10T03:45:15;12.90;99.90
65692;DHT22;52411;52.716;6.696;2023-05-10T03:47:40;12.90;99.90
65692;DHT22;52411;52.716;6.696;2023-05-10T03:50:06;12.90;99.90
65692;DHT22;52411;52.716;6.696;2023-05-10T03:52:31;12.90;99.90
65692;DHT22;52411;52.716;6.696;2023-05-10T03:54:57;12.90;99.90
65692;DHT22;52411;52.716;6.696;2023-05-10T03:57:22;12.90;99.90
65692;DHT22;52411;52.716;6.696;2023-05-10T03:59:48;12.80;99.90
65692;DHT22;52411;52.716;6.696;2023-05-10T04:02:13;12.90;99.90
65692;DHT22;52411;52.716;6.696;2023-05-10T04:04:39;12.90;99.90
65692;DHT22;52411;52.716;6.696;2023-05-10T04:07:04;12.80;99.90
65692;DHT22;52411;52.716;6.696;2023-05-10T04:09:30;12.80;99.90
65692;DHT22;52411;52.716;6.696;2023-05-10T04:11:55;12.80;99.90
65692;DHT22;52411;52.716;6.696;2023-05-10T04:14:21;12.80;99.90
65692;DHT22;52411;52.716;6.696;2023-05-10T04:16:46;12.80;99.90
65692;DHT22;52411;52.716;6.696;2023-05-10T04:19:12;12.80;99.90
65692;DHT22;52411;52.716;6.696;2023-05-10T04:21:37;12.80;99.90
65692;DHT22;52411;52.716;6.696;2023-05-10T04:24:03;12.80;99.90
65692;DHT22;52411;52.716;6.696;2023-05-10T04:26:28;12.80;99.90
65692;DHT22;52411;52.716;6.696;2023-05-10T04:28:54;12.80;99.90
65692;DHT22;52411;52.716;6.696;2023-05-10T04:31:19;12.80;99.90
65692;DHT22;52411;52.716;6.696;2023-05-10T04:33:45;12.80;99.90
65692;DHT22;52411;52.716;6.696;2023-05-10T04:36:10;12.80;99.90
65692;DHT22;52411;52.716;6.696;2023-05-10T04:38:36;12.80;99.90
65692;DHT22;52411;52.716;6.696;2023-05-10T04:41:05;12.80;99.90
65692;DHT22;52411;52.716;6.696;2023-05-10T04:43:31;12.80;99.90
65692;DHT22;52411;52.716;6.696;2023-05-10T04:45:56;12.80;99.90
65692;DHT22;52411;52.716;6.696;2023-05-10T04:48:22;12.70;99.90
65692;DHT22;52411;52.716;6.696;2023-05-10T04:50:48;12.80;99.90
65692;DHT22;52411;52.716;6.696;2023-05-10T04:53:13;12.80;99.90
65692;DHT22;52411;52.716;6.696;2023-05-10T04:55:38;12.80;99.90
65692;DHT22;52411;52.716;6.696;2023-05-10T04:58:04;12.80;99.90
65692;DHT22;52411;52.716;6.696;2023-05-10T05:00:29;12.80;99.90
65692;DHT22;52411;52.716;6.696;2023-05-10T05:02:55;12.80;99.90
65692;DHT22;52411;52.716;6.696;2023-05-10T05:05:20;12.80;99.90
65692;DHT22;52411;52.716;6.696;2023-05-10T05:07:46;12.80;99.90
65692;DHT22;52411;52.716;6.696;2023-05-10T05:10:11;12.80;99.90
65692;DHT22;52411;52.716;6.696;2023-05-10T05:12:37;12.80;99.90
65692;DHT22;52411;52.716;6.696;2023-05-10T05:15:02;12.80;99.90
65692;DHT22;52411;52.716;6.696;2023-05-10T05:17:29;12.80;99.90
65692;DHT22;52411;52.716;6.696;2023-05-10T05:19:55;12.80;99.90
65692;DHT22;52411;52.716;6.696;2023-05-10T05:22:21;12.80;99.90
65692;DHT22;52411;52.716;6.696;2023-05-10T05:24:53;12.80;99.90
65692;DHT22;52411;52.716;6.696;2023-05-10T05:27:18;12.80;99.90
65692;DHT22;52411;52.716;6.696;2023-05-10T05:29:46;12.80;99.90
65692;DHT22;52411;52.716;6.696;2023-05-10T05:32:11;12.90;99.90
65692;DHT22;52411;52.716;6.696;2023-05-10T05:34:37;12.90;99.90
65692;DHT22;52411;52.716;6.696;2023-05-10T05:37:02;12.90;99.90
65692;DHT22;52411;52.716;6.696;2023-05-10T05:39:28;12.90;99.90
65692;DHT22;52411;52.716;6.696;2023-05-10T05:41:53;12.90;99.90
65692;DHT22;52411;52.716;6.696;2023-05-10T05:44:18;12.90;99.90
65692;DHT22;52411;52.716;6.696;2023-05-10T05:46:44;13.00;99.90
65692;DHT22;52411;52.716;6.696;2023-05-10T05:49:09;13.00;99.90
65692;DHT22;52411;52.716;6.696;2023-05-10T05:51:35;13.00;99.90
65692;DHT22;52411;52.716;6.696;2023-05-10T05:54:00;13.00;99.90
65692;DHT22;52411;52.716;6.696;2023-05-10T05:56:26;13.00;99.90
65692;DHT22;52411;52.716;6.696;2023-05-10T05:58:51;13.00;99.90
65692;DHT22;52411;52.716;6.696;2023-05-10T06:01:17;13.10;99.90
65692;DHT22;52411;52.716;6.696;2023-05-10T06:03:42;13.00;99.90
65692;DHT22;52411;52.716;6.696;2023-05-10T06:06:08;13.00;99.90
65692;DHT22;52411;52.716;6.696;2023-05-10T06:08:34;13.00;99.90
65692;DHT22;52411;52.716;6.696;2023-05-10T06:10:59;13.10;99.90
65692;DHT22;52411;52.716;6.696;2023-05-10T06:13:25;13.10;99.90
65692;DHT22;52411;52.716;6.696;2023-05-10T06:15:54;13.20;99.90
65692;DHT22;52411;52.716;6.696;2023-05-10T06:18:19;13.30;99.90
65692;DHT22;52411;52.716;6.696;2023-05-10T06:20:45;13.30;99.90
65692;DHT22;52411;52.716;6.696;2023-05-10T06:23:10;13.30;99.90
65692;DHT22;52411;52.716;6.696;2023-05-10T06:25:36;13.40;99.90
65692;DHT22;52411;52.716;6.696;2023-05-10T06:28:02;13.40;99.90
65692;DHT22;52411;52.716;6.696;2023-05-10T06:30:27;13.50;99.90
65692;DHT22;52411;52.716;6.696;2023-05-10T06:32:53;13.60;99.90
65692;DHT22;52411;52.716;6.696;2023-05-10T06:35:19;13.60;99.90
65692;DHT22;52411;52.716;6.696;2023-05-10T06:37:45;13.70;99.90
65692;DHT22;52411;52.716;6.696;2023-05-10T06:40:11;13.80;99.90
65692;DHT22;52411;52.716;6.696;2023-05-10T06:42:37;13.90;99.90
65692;DHT22;52411;52.716;6.696;2023-05-10T06:45:03;14.00;99.90
65692;DHT22;52411;52.716;6.696;2023-05-10T06:47:28;14.00;99.90
65692;DHT22;52411;52.716;6.696;2023-05-10T06:49:54;14.20;99.90
65692;DHT22;52411;52.716;6.696;2023-05-10T06:52:20;14.30;99.90
65692;DHT22;52411;52.716;6.696;2023-05-10T06:54:46;14.30;99.90
65692;DHT22;52411;52.716;6.696;2023-05-10T06:57:11;14.30;99.90
65692;DHT22;52411;52.716;6.696;2023-05-10T06:59:37;14.30;99.90
65692;DHT22;52411;52.716;6.696;2023-05-10T07:02:03;14.30;99.90
65692;DHT22;52411;52.716;6.696;2023-05-10T07:04:28;14.30;99.90
65692;DHT22;52411;52.716;6.696;2023-05-10T07:06:54;14.30;99.90
65692;DHT22;52411;52.716;6.696;2023-05-10T07:09:19;14.30;99.90
65692;DHT22;52411;52.716;6.696;2023-05-10T07:11:45;14.30;99.90
65692;DHT22;52411;52.716;6.696;2023-05-10T07:14:10;14.30;99.90
65692;DHT22;52411;52.716;6.696;2023-05-10T07:16:36;14.30;99.90
65692;DHT22;52411;52.716;6.696;2023-05-10T07:19:01;14.30;99.90
65692;DHT22;52411;52.716;6.696;2023-05-10T07:21:27;14.30;99.90
65692;DHT22;52411;52.716;6.696;2023-05-10T07:23:54;14.30;99.90
65692;DHT22;52411;52.716;6.696;2023-05-10T07:26:19;14.20;99.90
65692;DHT22;52411;52.716;6.696;2023-05-10T07:28:46;14.20;99.90
65692;DHT22;52411;52.716;6.696;2023-05-10T07:31:11;14.20;99.90
65692;DHT22;52411;52.716;6.696;2023-05-10T07:33:37;14.20;99.90
65692;DHT22;52411;52.716;6.696;2023-05-10T07:36:02;14.20;99.90
65692;DHT22;52411;52.716;6.696;2023-05-10T07:38:27;14.10;99.90
65692;DHT22;52411;52.716;6.696;2023-05-10T07:40:53;14.10;99.90
65692;DHT22;52411;52.716;6.696;2023-05-10T07:43:18;14.00;99.90
65692;DHT22;52411;52.716;6.696;2023-05-10T07:45:44;14.10;99.90
65692;DHT22;52411;52.716;6.696;2023-05-10T07:48:09;14.10;99.90
65692;DHT22;52411;52.716;6.696;2023-05-10T07:50:35;14.20;99.90
65692;DHT22;52411;52.716;6.696;2023-05-10T07:53:00;14.30;99.90
65692;DHT22;52411;52.716;6.696;2023-05-10T07:55:26;14.30;99.90
65692;DHT22;52411;52.716;6.696;2023-05-10T07:57:51;14.30;99.90
65692;DHT22;52411;52.716;6.696;2023-05-10T08:00:17;14.30;99.90
65692;DHT22;52411;52.716;6.696;2023-05-10T08:02:43;14.30;99.90
65692;DHT22;52411;52.716;6.696;2023-05-10T08:05:09;14.30;99.90
65692;DHT22;52411;52.716;6.696;2023-05-10T08:07:35;14.40;99.90
65692;DHT22;52411;52.716;6.696;2023-05-10T08:10:00;14.50;99.90
65692;DHT22;52411;52.716;6.696;2023-05-10T08:12:26;14.60;99.90
65692;DHT22;52411;52.716;6.696;2023-05-10T08:14:51;14.80;99.90
65692;DHT22;52411;52.716;6.696;2023-05-10T08:17:17;14.90;99.90
65692;DHT22;52411;52.716;6.696;2023-05-10T08:19:42;14.80;99.90
65692;DHT22;52411;52.716;6.696;2023-05-10T08:22:08;14.80;99.90
65692;DHT22;52411;52.716;6.696;2023-05-10T08:24:33;14.90;99.90
65692;DHT22;52411;52.716;6.696;2023-05-10T08:27:06;14.90;99.90
65692;DHT22;52411;52.716;6.696;2023-05-10T08:29:32;14.90;99.90
65692;DHT22;52411;52.716;6.696;2023-05-10T08:31:58;15.00;99.90
65692;DHT22;52411;52.716;6.696;2023-05-10T08:34:23;15.20;99.90
65692;DHT22;52411;52.716;6.696;2023-05-10T08:36:48;15.30;99.90
65692;DHT22;52411;52.716;6.696;2023-05-10T08:39:14;15.40;99.90
65692;DHT22;52411;52.716;6.696;2023-05-10T08:41:39;15.50;99.90
65692;DHT22;52411;52.716;6.696;2023-05-10T08:44:08;15.40;99.90
65692;DHT22;52411;52.716;6.696;2023-05-10T08:46:33;15.60;99.90
65692;DHT22;52411;52.716;6.696;2023-05-10T08:49:04;15.60;99.90
65692;DHT22;52411;52.716;6.696;2023-05-10T08:51:30;15.50;99.90
65692;DHT22;52411;52.716;6.696;2023-05-10T08:53:59;15.50;99.90
65692;DHT22;52411;52.716;6.696;2023-05-10T08:56:25;15.60;99.90
65692;DHT22;52411;52.716;6.696;2023-05-10T08:58:51;15.70;99.90
65692;DHT22;52411;52.716;6.696;2023-05-10T09:01:16;15.80;99.90
65692;DHT22;52411;52.716;6.696;2023-05-10T09:03:43;15.90;99.90
65692;DHT22;52411;52.716;6.696;2023-05-10T09:06:08;16.00;99.90
65692;DHT22;52411;52.716;6.696;2023-05-10T09:08:34;16.10;99.90
65692;DHT22;52411;52.716;6.696;2023-05-10T09:11:00;15.90;99.90
65692;DHT22;52411;52.716;6.696;2023-05-10T09:13:26;15.90;99.90
65692;DHT22;52411;52.716;6.696;2023-05-10T09:15:51;15.80;99.90
65692;DHT22;52411;52.716;6.696;2023-05-10T09:18:18;15.70;99.90
65692;DHT22;52411;52.716;6.696;2023-05-10T09:20:43;15.70;99.90
65692;DHT22;52411;52.716;6.696;2023-05-10T09:23:12;15.80;99.90
65692;DHT22;52411;52.716;6.696;2023-05-10T09:25:38;15.90;99.90
65692;DHT22;52411;52.716;6.696;2023-05-10T09:28:05;15.80;99.90
65692;DHT22;52411;52.716;6.696;2023-05-10T09:30:31;15.80;99.90
65692;DHT22;52411;52.716;6.696;2023-05-10T09:32:57;15.80;99.90
65692;DHT22;52411;52.716;6.696;2023-05-10T09:35:23;15.70;99.90
65692;DHT22;52411;52.716;6.696;2023-05-10T09:37:50;15.60;99.90
65692;DHT22;52411;52.716;6.696;2023-05-10T09:40:20;15.60;99.90
65692;DHT22;52411;52.716;6.696;2023-05-10T09:42:52;15.50;99.90
65692;DHT22;52411;52.716;6.696;2023-05-10T09:45:18;15.50;99.90
65692;DHT22;52411;52.716;6.696;2023-05-10T09:47:43;15.50;99.90
65692;DHT22;52411;52.716;6.696;2023-05-10T09:50:09;15.50;99.90
65692;DHT22;52411;52.716;6.696;2023-05-10T09:52:48;15.50;99.90
65692;DHT22;52411;52.716;6.696;2023-05-10T09:55:14;15.50;99.90
65692;DHT22;52411;52.716;6.696;2023-05-10T09:57:40;15.40;99.90
65692;DHT22;52411;52.716;6.696;2023-05-10T10:00:06;15.50;99.90
65692;DHT22;52411;52.716;6.696;2023-05-10T10:02:32;15.50;99.90
65692;DHT22;52411;52.716;6.696;2023-05-10T10:04:57;15.70;99.90
65692;DHT22;52411;52.716;6.696;2023-05-10T10:07:23;15.70;99.90
65692;DHT22;52411;52.716;6.696;2023-05-10T10:09:50;15.80;99.90
65692;DHT22;52411;52.716;6.696;2023-05-10T10:12:16;15.90;99.90
65692;DHT22;52411;52.716;6.696;2023-05-10T10:14:41;15.90;99.90
65692;DHT22;52411;52.716;6.696;2023-05-10T10:17:07;16.00;99.90
65692;DHT22;52411;52.716;6.696;2023-05-10T10:19:33;16.10;99.90
65692;DHT22;52411;52.716;6.696;2023-05-10T10:22:00;16.10;99.90
65692;DHT22;52411;52.716;6.696;2023-05-10T10:24:25;16.20;99.90
65692;DHT22;52411;52.716;6.696;2023-05-10T10:26:52;16.10;99.90
65692;DHT22;52411;52.716;6.696;2023-05-10T10:29:32;16.00;99.90
65692;DHT22;52411;52.716;6.696;2023-05-10T10:34:44;15.80;99.90
65692;DHT22;52411;52.716;6.696;2023-05-10T10:37:10;15.90;99.90
65692;DHT22;52411;52.716;6.696;2023-05-10T10:39:35;15.80;99.90
65692;DHT22;52411;52.716;6.696;2023-05-10T10:42:02;15.90;99.90
65692;DHT22;52411;52.716;6.696;2023-05-10T10:49:48;16.20;99.90
65692;DHT22;52411;52.716;6.696;2023-05-10T10:52:27;16.30;99.90
65692;DHT22;52411;52.716;6.696;2023-05-10T10:57:49;16.40;99.90
65692;DHT22;52411;52.716;6.696;2023-05-10T11:00:35;16.50;99.90
65692;DHT22;52411;52.716;6.696;2023-05-10T11:05:33;16.30;99.90
65692;DHT22;52411;52.716;6.696;2023-05-10T11:08:02;16.20;99.90
65692;DHT22;52411;52.716;6.696;2023-05-10T11:10:31;16.20;99.90
65692;DHT22;52411;52.716;6.696;2023-05-10T11:13:00;16.10;99.90
65692;DHT22;52411;52.716;6.696;2023-05-10T11:15:30;16.20;99.90
65692;DHT22;52411;52.716;6.696;2023-05-10T11:17:56;16.30;99.90
65692;DHT22;52411;52.716;6.696;2023-05-10T11:20:21;16.20;99.90
65692;DHT22;52411;52.716;6.696;2023-05-10T11:22:50;16.20;99.90
65692;DHT22;52411;52.716;6.696;2023-05-10T11:25:17;16.20;99.90
65692;DHT22;52411;52.716;6.696;2023-05-10T11:27:42;16.20;99.90
65692;DHT22;52411;52.716;6.696;2023-05-10T11:30:09;16.30;99.90
65692;DHT22;52411;52.716;6.696;2023-05-10T11:32:38;16.20;99.90
65692;DHT22;52411;52.716;6.696;2023-05-10T11:35:07;16.30;99.90
65692;DHT22;52411;52.716;6.696;2023-05-10T11:37:33;16.40;99.90
65692;DHT22;52411;52.716;6.696;2023-05-10T11:39:59;16.50;99.90
65692;DHT22;52411;52.716;6.696;2023-05-10T11:42:25;16.50;99.90
65692;DHT22;52411;52.716;6.696;2023-05-10T11:44:50;16.50;99.90
65692;DHT22;52411;52.716;6.696;2023-05-10T11:47:16;16.60;99.90
65692;DHT22;52411;52.716;6.696;2023-05-10T11:49:44;16.50;99.90
65692;DHT22;52411;52.716;6.696;2023-05-10T11:52:10;16.40;99.90
65692;DHT22;52411;52.716;6.696;2023-05-10T11:54:44;16.30;99.90
65692;DHT22;52411;52.716;6.696;2023-05-10T11:57:10;16.30;99.90
65692;DHT22;52411;52.716;6.696;2023-05-10T11:59:36;16.20;99.90
65692;DHT22;52411;52.716;6.696;2023-05-10T12:02:01;16.30;99.90
65692;DHT22;52411;52.716;6.696;2023-05-10T12:04:28;16.30;99.90
65692;DHT22;52411;52.716;6.696;2023-05-10T12:06:54;16.40;99.90
65692;DHT22;52411;52.716;6.696;2023-05-10T12:09:20;16.30;99.90
65692;DHT22;52411;52.716;6.696;2023-05-10T12:11:45;16.20;99.90
65692;DHT22;52411;52.716;6.696;2023-05-10T12:14:11;16.20;99.90
65692;DHT22;52411;52.716;6.696;2023-05-10T12:16:36;16.20;99.90
65692;DHT22;52411;52.716;6.696;2023-05-10T12:19:02;16.20;99.90
65692;DHT22;52411;52.716;6.696;2023-05-10T12:21:30;16.10;99.90
65692;DHT22;52411;52.716;6.696;2023-05-10T12:23:59;16.20;99.90
65692;DHT22;52411;52.716;6.696;2023-05-10T12:26:25;16.20;99.90
65692;DHT22;52411;52.716;6.696;2023-05-10T12:28:52;16.20;99.90
65692;DHT22;52411;52.716;6.696;2023-05-10T12:31:18;16.30;99.90
65692;DHT22;52411;52.716;6.696;2023-05-10T12:33:44;16.30;99.90
65692;DHT22;52411;52.716;6.696;2023-05-10T12:36:11;16.40;99.90
65692;DHT22;52411;52.716;6.696;2023-05-10T12:41:04;16.50;99.90
65692;DHT22;52411;52.716;6.696;2023-05-10T12:43:30;16.60;99.90
65692;DHT22;52411;52.716;6.696;2023-05-10T12:45:56;16.70;99.90
65692;DHT22;52411;52.716;6.696;2023-05-10T12:48:22;16.70;99.90
65692;DHT22;52411;52.716;6.696;2023-05-10T12:50:47;16.90;99.90
65692;DHT22;52411;52.716;6.696;2023-05-10T12:53:13;17.00;99.90
65692;DHT22;52411;52.716;6.696;2023-05-10T12:55:41;17.00;99.90
65692;DHT22;52411;52.716;6.696;2023-05-10T12:58:06;17.20;99.90
65692;DHT22;52411;52.716;6.696;2023-05-10T13:00:32;17.30;99.90
65692;DHT22;52411;52.716;6.696;2023-05-10T13:02:57;17.30;99.90
65692;DHT22;52411;52.716;6.696;2023-05-10T13:05:22;17.40;99.90
65692;DHT22;52411;52.716;6.696;2023-05-10T13:07:48;17.40;99.90
65692;DHT22;52411;52.716;6.696;2023-05-10T13:10:13;17.40;99.90
65692;DHT22;52411;52.716;6.696;2023-05-10T13:12:39;17.30;99.90
65692;DHT22;52411;52.716;6.696;2023-05-10T13:15:05;17.20;99.90
65692;DHT22;52411;52.716;6.696;2023-05-10T13:17:30;17.20;99.90
65692;DHT22;52411;52.716;6.696;2023-05-10T13:19:56;17.30;99.90
65692;DHT22;52411;52.716;6.696;2023-05-10T13:22:21;17.40;99.90
65692;DHT22;52411;52.716;6.696;2023-05-10T13:24:47;17.50;99.90
65692;DHT22;52411;52.716;6.696;2023-05-10T13:27:12;17.40;99.90
65692;DHT22;52411;52.716;6.696;2023-05-10T13:29:38;17.40;99.90
65692;DHT22;52411;52.716;6.696;2023-05-10T13:32:03;17.40;99.90
65692;DHT22;52411;52.716;6.696;2023-05-10T13:34:29;17.50;99.90
65692;DHT22;52411;52.716;6.696;2023-05-10T13:36:54;17.50;99.90
65692;DHT22;52411;52.716;6.696;2023-05-10T13:39:21;17.50;99.90
65692;DHT22;52411;52.716;6.696;2023-05-10T13:41:47;17.40;99.90
65692;DHT22;52411;52.716;6.696;2023-05-10T13:44:13;17.40;99.90
65692;DHT22;52411;52.716;6.696;2023-05-10T13:46:39;17.30;99.90
65692;DHT22;52411;52.716;6.696;2023-05-10T13:49:05;17.30;99.90
65692;DHT22;52411;52.716;6.696;2023-05-10T13:51:31;17.30;99.90
65692;DHT22;52411;52.716;6.696;2023-05-10T13:53:57;17.20;99.90
65692;DHT22;52411;52.716;6.696;2023-05-10T13:56:22;17.30;99.90
65692;DHT22;52411;52.716;6.696;2023-05-10T13:58:48;17.20;99.90
65692;DHT22;52411;52.716;6.696;2023-05-10T14:01:14;17.20;99.90
65692;DHT22;52411;52.716;6.696;2023-05-10T14:03:39;17.20;99.90
65692;DHT22;52411;52.716;6.696;2023-05-10T14:06:05;17.00;99.90
65692;DHT22;52411;52.716;6.696;2023-05-10T14:08:32;16.90;99.90
65692;DHT22;52411;52.716;6.696;2023-05-10T14:10:58;16.70;99.90
65692;DHT22;52411;52.716;6.696;2023-05-10T14:13:23;16.70;99.90
65692;DHT22;52411;52.716;6.696;2023-05-10T14:15:50;16.60;99.90
65692;DHT22;52411;52.716;6.696;2023-05-10T14:18:16;16.60;99.90
65692;DHT22;52411;52.716;6.696;2023-05-10T14:20:41;16.60;99.90
65692;DHT22;52411;52.716;6.696;2023-05-10T14:23:06;16.70;99.90
65692;DHT22;52411;52.716;6.696;2023-05-10T14:25:32;16.80;99.90
65692;DHT22;52411;52.716;6.696;2023-05-10T14:27:58;16.80;99.90
65692;DHT22;52411;52.716;6.696;2023-05-10T14:30:23;16.80;99.90
65692;DHT22;52411;52.716;6.696;2023-05-10T14:32:49;16.80;99.90
65692;DHT22;52411;52.716;6.696;2023-05-10T14:35:15;16.70;99.90
65692;DHT22;52411;52.716;6.696;2023-05-10T14:37:40;16.70;99.90
65692;DHT22;52411;52.716;6.696;2023-05-10T14:40:06;16.50;99.90
65692;DHT22;52411;52.716;6.696;2023-05-10T14:42:31;16.50;99.90
65692;DHT22;52411;52.716;6.696;2023-05-10T14:44:57;16.40;99.90
65692;DHT22;52411;52.716;6.696;2023-05-10T14:47:22;16.30;99.90
65692;DHT22;52411;52.716;6.696;2023-05-10T14:49:48;16.20;99.90
65692;DHT22;52411;52.716;6.696;2023-05-10T14:52:13;16.20;99.90
65692;DHT22;52411;52.716;6.696;2023-05-10T14:54:39;16.10;99.90
65692;DHT22;52411;52.716;6.696;2023-05-10T14:57:06;16.10;99.90
65692;DHT22;52411;52.716;6.696;2023-05-10T14:59:31;16.10;99.90
65692;DHT22;52411;52.716;6.696;2023-05-10T15:01:57;16.00;99.90
65692;DHT22;52411;52.716;6.696;2023-05-10T15:04:22;16.00;99.90
65692;DHT22;52411;52.716;6.696;2023-05-10T15:06:48;16.00;99.90
65692;DHT22;52411;52.716;6.696;2023-05-10T15:09:14;16.00;99.90
65692;DHT22;52411;52.716;6.696;2023-05-10T15:11:40;16.00;99.90
65692;DHT22;52411;52.716;6.696;2023-05-10T15:14:06;16.10;99.90
65692;DHT22;52411;52.716;6.696;2023-05-10T15:16:31;16.10;99.90
65692;DHT22;52411;52.716;6.696;2023-05-10T15:18:57;16.20;99.90
65692;DHT22;52411;52.716;6.696;2023-05-10T15:21:22;16.20;99.90
65692;DHT22;52411;52.716;6.696;2023-05-10T15:23:47;16.20;99.90
65692;DHT22;52411;52.716;6.696;2023-05-10T15:26:13;16.20;99.90
65692;DHT22;52411;52.716;6.696;2023-05-10T15:28:38;16.20;99.90
65692;DHT22;52411;52.716;6.696;2023-05-10T15:31:04;16.30;99.90
65692;DHT22;52411;52.716;6.696;2023-05-10T15:33:29;16.20;99.90
65692;DHT22;52411;52.716;6.696;2023-05-10T15:35:55;16.20;99.90
65692;DHT22;52411;52.716;6.696;2023-05-10T15:38:20;16.20;99.90
65692;DHT22;52411;52.716;6.696;2023-05-10T15:40:46;16.20;99.90
65692;DHT22;52411;52.716;6.696;2023-05-10T15:43:12;16.20;99.90
65692;DHT22;52411;52.716;6.696;2023-05-10T15:45:37;16.20;99.90
65692;DHT22;52411;52.716;6.696;2023-05-10T15:48:03;16.20;99.90
65692;DHT22;52411;52.716;6.696;2023-05-10T15:50:29;16.20;99.90
65692;DHT22;52411;52.716;6.696;2023-05-10T15:52:54;16.10;99.90
65692;DHT22;52411;52.716;6.696;2023-05-10T15:55:19;16.10;99.90